sensor_id;sensor_type;location;lat;lon;timestamp;P1;durP1;ratioP1;P2;durP2;ratioP2
1479;SDS011;732;51.698;4.886;2023-07-13T00:01:15;9.80;;;2.97;;
1479;SDS011;732;51.698;4.886;2023-07-13T00:03:45;14.03;;;3.10;;
1479;SDS011;732;51.698;4.886;2023-07-13T00:06:13;7.70;;;3.10;;
1479;SDS011;732;51.698;4.886;2023-07-13T00:08:42;5.67;;;2.77;;
1479;SDS011;732;51.698;4.886;2023-07-13T00:11:11;7.43;;;2.73;;
1479;SDS011;732;51.698;4.886;2023-07-13T00:13:39;11.00;;;2.73;;
1479;SDS011;732;51.698;4.886;2023-07-13T00:16:09;7.00;;;2.80;;
1479;SDS011;732;51.698;4.886;2023-07-13T00:18:41;6.87;;;3.10;;
1479;SDS011;732;51.698;4.886;2023-07-13T00:21:10;8.00;;;2.27;;
1479;SDS011;732;51.698;4.886;2023-07-13T00:23:39;7.77;;;3.23;;
1479;SDS011;732;51.698;4.886;2023-07-13T00:26:10;11.00;;;2.63;;
1479;SDS011;732;51.698;4.886;2023-07-13T00:28:40;9.73;;;2.67;;
1479;SDS011;732;51.698;4.886;2023-07-13T00:31:09;10.23;;;2.77;;
1479;SDS011;732;51.698;4.886;2023-07-13T00:33:39;9.10;;;2.97;;
1479;SDS011;732;51.698;4.886;2023-07-13T00:36:10;9.40;;;3.00;;
1479;SDS011;732;51.698;4.886;2023-07-13T00:38:39;9.73;;;3.17;;
1479;SDS011;732;51.698;4.886;2023-07-13T00:41:09;7.90;;;2.70;;
1479;SDS011;732;51.698;4.886;2023-07-13T00:43:38;8.80;;;2.93;;
1479;SDS011;732;51.698;4.886;2023-07-13T00:49:04;10.57;;;2.70;;
1479;SDS011;732;51.698;4.886;2023-07-13T00:51:36;9.00;;;3.20;;
1479;SDS011;732;51.698;4.886;2023-07-13T00:54:10;9.33;;;3.50;;
1479;SDS011;732;51.698;4.886;2023-07-13T00:56:43;12.10;;;3.17;;
1479;SDS011;732;51.698;4.886;2023-07-13T00:59:14;9.40;;;2.97;;
1479;SDS011;732;51.698;4.886;2023-07-13T01:01:45;10.97;;;3.50;;
1479;SDS011;732;51.698;4.886;2023-07-13T01:04:16;15.03;;;3.70;;
1479;SDS011;732;51.698;4.886;2023-07-13T01:06:46;9.90;;;3.90;;
1479;SDS011;732;51.698;4.886;2023-07-13T01:09:15;13.27;;;3.47;;
1479;SDS011;732;51.698;4.886;2023-07-13T01:11:44;12.80;;;3.60;;
1479;SDS011;732;51.698;4.886;2023-07-13T01:14:13;13.33;;;3.33;;
1479;SDS011;732;51.698;4.886;2023-07-13T01:16:44;16.07;;;3.53;;
1479;SDS011;732;51.698;4.886;2023-07-13T01:19:19;10.73;;;3.50;;
1479;SDS011;732;51.698;4.886;2023-07-13T01:22:05;9.60;;;3.40;;
1479;SDS011;732;51.698;4.886;2023-07-13T01:24:39;11.93;;;4.10;;
1479;SDS011;732;51.698;4.886;2023-07-13T01:27:11;9.30;;;3.20;;
1479;SDS011;732;51.698;4.886;2023-07-13T01:29:42;9.03;;;3.03;;
1479;SDS011;732;51.698;4.886;2023-07-13T01:32:16;19.77;;;4.90;;
1479;SDS011;732;51.698;4.886;2023-07-13T01:34:52;12.20;;;3.20;;
1479;SDS011;732;51.698;4.886;2023-07-13T01:37:24;15.80;;;4.00;;
1479;SDS011;732;51.698;4.886;2023-07-13T01:39:54;9.50;;;3.57;;
1479;SDS011;732;51.698;4.886;2023-07-13T01:42:23;14.93;;;3.80;;
1479;SDS011;732;51.698;4.886;2023-07-13T01:44:52;14.80;;;3.70;;
1479;SDS011;732;51.698;4.886;2023-07-13T01:47:20;11.27;;;3.27;;
1479;SDS011;732;51.698;4.886;2023-07-13T01:49:50;19.00;;;4.83;;
1479;SDS011;732;51.698;4.886;2023-07-13T01:52:18;15.87;;;4.57;;
1479;SDS011;732;51.698;4.886;2023-07-13T01:54:48;12.07;;;3.80;;
1479;SDS011;732;51.698;4.886;2023-07-13T01:57:17;11.77;;;3.90;;
1479;SDS011;732;51.698;4.886;2023-07-13T01:59:46;13.13;;;4.30;;
1479;SDS011;732;51.698;4.886;2023-07-13T02:02:15;14.23;;;4.00;;
1479;SDS011;732;51.698;4.886;2023-07-13T02:04:44;17.20;;;4.20;;
1479;SDS011;732;51.698;4.886;2023-07-13T02:07:13;12.10;;;4.43;;
1479;SDS011;732;51.698;4.886;2023-07-13T02:09:43;15.10;;;4.37;;
1479;SDS011;732;51.698;4.886;2023-07-13T02:12:14;18.80;;;5.67;;
1479;SDS011;732;51.698;4.886;2023-07-13T02:14:43;13.73;;;4.67;;
1479;SDS011;732;51.698;4.886;2023-07-13T02:17:11;12.20;;;4.40;;
1479;SDS011;732;51.698;4.886;2023-07-13T02:19:41;13.20;;;5.10;;
1479;SDS011;732;51.698;4.886;2023-07-13T02:22:09;11.00;;;5.10;;
1479;SDS011;732;51.698;4.886;2023-07-13T02:24:37;15.83;;;5.60;;
1479;SDS011;732;51.698;4.886;2023-07-13T02:27:06;18.30;;;5.57;;
1479;SDS011;732;51.698;4.886;2023-07-13T02:29:36;22.50;;;5.63;;
1479;SDS011;732;51.698;4.886;2023-07-13T02:32:06;13.00;;;5.27;;
1479;SDS011;732;51.698;4.886;2023-07-13T02:34:35;14.87;;;6.10;;
1479;SDS011;732;51.698;4.886;2023-07-13T02:37:04;14.17;;;4.93;;
1479;SDS011;732;51.698;4.886;2023-07-13T02:39:34;14.27;;;5.50;;
1479;SDS011;732;51.698;4.886;2023-07-13T02:42:03;15.70;;;4.87;;
1479;SDS011;732;51.698;4.886;2023-07-13T02:44:33;17.80;;;6.00;;
1479;SDS011;732;51.698;4.886;2023-07-13T02:47:03;16.30;;;5.87;;
1479;SDS011;732;51.698;4.886;2023-07-13T02:49:31;20.23;;;5.80;;
1479;SDS011;732;51.698;4.886;2023-07-13T02:52:00;13.13;;;5.33;;
1479;SDS011;732;51.698;4.886;2023-07-13T02:54:30;19.87;;;6.33;;
1479;SDS011;732;51.698;4.886;2023-07-13T02:56:58;16.87;;;5.57;;
1479;SDS011;732;51.698;4.886;2023-07-13T02:59:27;20.03;;;6.50;;
1479;SDS011;732;51.698;4.886;2023-07-13T03:01:55;17.43;;;6.27;;
1479;SDS011;732;51.698;4.886;2023-07-13T03:04:25;18.73;;;7.17;;
1479;SDS011;732;51.698;4.886;2023-07-13T03:06:54;17.80;;;6.80;;
1479;SDS011;732;51.698;4.886;2023-07-13T03:09:29;18.83;;;6.53;;
1479;SDS011;732;51.698;4.886;2023-07-13T03:12:01;20.77;;;6.87;;
1479;SDS011;732;51.698;4.886;2023-07-13T03:14:31;16.13;;;5.83;;
1479;SDS011;732;51.698;4.886;2023-07-13T03:17:03;27.73;;;7.20;;
1479;SDS011;732;51.698;4.886;2023-07-13T03:19:37;18.63;;;7.17;;
1479;SDS011;732;51.698;4.886;2023-07-13T03:22:06;18.57;;;7.30;;
1479;SDS011;732;51.698;4.886;2023-07-13T03:24:36;25.23;;;7.50;;
1479;SDS011;732;51.698;4.886;2023-07-13T03:27:06;19.60;;;6.87;;
1479;SDS011;732;51.698;4.886;2023-07-13T03:29:38;24.30;;;7.90;;
1479;SDS011;732;51.698;4.886;2023-07-13T03:32:07;19.67;;;7.63;;
1479;SDS011;732;51.698;4.886;2023-07-13T03:34:38;16.00;;;7.70;;
1479;SDS011;732;51.698;4.886;2023-07-13T03:37:07;24.37;;;8.77;;
1479;SDS011;732;51.698;4.886;2023-07-13T03:39:36;26.60;;;10.03;;
1479;SDS011;732;51.698;4.886;2023-07-13T03:42:05;16.53;;;7.57;;
1479;SDS011;732;51.698;4.886;2023-07-13T03:44:34;26.97;;;8.90;;
1479;SDS011;732;51.698;4.886;2023-07-13T03:47:03;31.73;;;9.73;;
1479;SDS011;732;51.698;4.886;2023-07-13T03:49:35;24.70;;;8.40;;
1479;SDS011;732;51.698;4.886;2023-07-13T03:52:06;24.30;;;9.20;;
1479;SDS011;732;51.698;4.886;2023-07-13T03:54:37;22.70;;;9.10;;
1479;SDS011;732;51.698;4.886;2023-07-13T03:57:06;36.10;;;10.13;;
1479;SDS011;732;51.698;4.886;2023-07-13T03:59:37;26.20;;;8.90;;
1479;SDS011;732;51.698;4.886;2023-07-13T04:02:07;28.17;;;9.70;;
1479;SDS011;732;51.698;4.886;2023-07-13T04:04:38;22.50;;;9.47;;
1479;SDS011;732;51.698;4.886;2023-07-13T04:07:07;29.47;;;9.40;;
1479;SDS011;732;51.698;4.886;2023-07-13T04:09:38;30.07;;;8.97;;
1479;SDS011;732;51.698;4.886;2023-07-13T04:12:09;25.10;;;9.73;;
1479;SDS011;732;51.698;4.886;2023-07-13T04:14:38;25.97;;;9.70;;
1479;SDS011;732;51.698;4.886;2023-07-13T04:17:06;31.63;;;10.27;;
1479;SDS011;732;51.698;4.886;2023-07-13T04:19:35;31.57;;;9.47;;
1479;SDS011;732;51.698;4.886;2023-07-13T04:22:05;28.00;;;10.77;;
1479;SDS011;732;51.698;4.886;2023-07-13T04:24:34;30.80;;;10.33;;
1479;SDS011;732;51.698;4.886;2023-07-13T04:27:04;28.40;;;10.80;;
1479;SDS011;732;51.698;4.886;2023-07-13T04:29:33;27.73;;;11.20;;
1479;SDS011;732;51.698;4.886;2023-07-13T04:32:01;22.03;;;9.80;;
1479;SDS011;732;51.698;4.886;2023-07-13T04:34:31;39.13;;;10.30;;
1479;SDS011;732;51.698;4.886;2023-07-13T04:37:01;29.13;;;11.20;;
1479;SDS011;732;51.698;4.886;2023-07-13T04:39:32;28.07;;;10.30;;
1479;SDS011;732;51.698;4.886;2023-07-13T04:42:01;27.77;;;10.40;;
1479;SDS011;732;51.698;4.886;2023-07-13T04:44:31;28.10;;;11.47;;
1479;SDS011;732;51.698;4.886;2023-07-13T04:46:59;28.60;;;10.67;;
1479;SDS011;732;51.698;4.886;2023-07-13T04:49:28;34.00;;;12.43;;
1479;SDS011;732;51.698;4.886;2023-07-13T04:51:56;28.93;;;11.40;;
1479;SDS011;732;51.698;4.886;2023-07-13T04:54:25;32.10;;;11.13;;
1479;SDS011;732;51.698;4.886;2023-07-13T04:56:55;30.87;;;12.60;;
1479;SDS011;732;51.698;4.886;2023-07-13T04:59:24;24.47;;;11.03;;
1479;SDS011;732;51.698;4.886;2023-07-13T05:01:53;28.07;;;12.50;;
1479;SDS011;732;51.698;4.886;2023-07-13T05:04:22;34.47;;;12.17;;
1479;SDS011;732;51.698;4.886;2023-07-13T05:06:53;42.13;;;14.03;;
1479;SDS011;732;51.698;4.886;2023-07-13T05:09:22;42.90;;;14.00;;
1479;SDS011;732;51.698;4.886;2023-07-13T05:11:50;31.20;;;13.10;;
1479;SDS011;732;51.698;4.886;2023-07-13T05:14:20;38.23;;;14.00;;
1479;SDS011;732;51.698;4.886;2023-07-13T05:16:49;33.30;;;13.00;;
1479;SDS011;732;51.698;4.886;2023-07-13T05:19:17;27.97;;;13.87;;
1479;SDS011;732;51.698;4.886;2023-07-13T05:21:46;33.27;;;14.20;;
1479;SDS011;732;51.698;4.886;2023-07-13T05:24:14;30.73;;;14.27;;
1479;SDS011;732;51.698;4.886;2023-07-13T05:26:51;32.63;;;14.60;;
1479;SDS011;732;51.698;4.886;2023-07-13T05:29:22;33.73;;;16.67;;
1479;SDS011;732;51.698;4.886;2023-07-13T05:31:51;37.10;;;16.40;;
1479;SDS011;732;51.698;4.886;2023-07-13T05:34:20;29.80;;;15.00;;
1479;SDS011;732;51.698;4.886;2023-07-13T05:36:49;42.30;;;17.27;;
1479;SDS011;732;51.698;4.886;2023-07-13T05:39:18;37.43;;;17.73;;
1479;SDS011;732;51.698;4.886;2023-07-13T05:41:47;41.33;;;19.23;;
1479;SDS011;732;51.698;4.886;2023-07-13T05:44:17;33.37;;;17.57;;
1479;SDS011;732;51.698;4.886;2023-07-13T05:46:47;32.53;;;17.93;;
1479;SDS011;732;51.698;4.886;2023-07-13T05:49:18;30.27;;;17.60;;
1479;SDS011;732;51.698;4.886;2023-07-13T05:51:47;40.10;;;18.63;;
1479;SDS011;732;51.698;4.886;2023-07-13T05:54:15;34.00;;;18.67;;
1479;SDS011;732;51.698;4.886;2023-07-13T05:56:44;37.50;;;18.03;;
1479;SDS011;732;51.698;4.886;2023-07-13T05:59:13;34.27;;;18.43;;
1479;SDS011;732;51.698;4.886;2023-07-13T06:01:42;38.07;;;20.07;;
1479;SDS011;732;51.698;4.886;2023-07-13T06:04:13;31.50;;;18.60;;
1479;SDS011;732;51.698;4.886;2023-07-13T06:06:41;33.30;;;18.47;;
1479;SDS011;732;51.698;4.886;2023-07-13T06:09:09;36.33;;;18.87;;
1479;SDS011;732;51.698;4.886;2023-07-13T06:11:38;36.80;;;21.10;;
1479;SDS011;732;51.698;4.886;2023-07-13T06:14:07;39.63;;;19.07;;
1479;SDS011;732;51.698;4.886;2023-07-13T06:16:36;33.77;;;19.87;;
1479;SDS011;732;51.698;4.886;2023-07-13T06:19:04;27.90;;;18.17;;
1479;SDS011;732;51.698;4.886;2023-07-13T06:21:34;34.97;;;19.93;;
1479;SDS011;732;51.698;4.886;2023-07-13T06:24:03;38.73;;;19.00;;
1479;SDS011;732;51.698;4.886;2023-07-13T06:26:32;30.17;;;17.90;;
1479;SDS011;732;51.698;4.886;2023-07-13T06:29:00;32.10;;;17.17;;
1479;SDS011;732;51.698;4.886;2023-07-13T06:31:29;29.73;;;18.37;;
1479;SDS011;732;51.698;4.886;2023-07-13T06:33:58;28.33;;;17.10;;
1479;SDS011;732;51.698;4.886;2023-07-13T06:36:27;32.40;;;16.03;;
1479;SDS011;732;51.698;4.886;2023-07-13T06:38:57;35.10;;;17.83;;
1479;SDS011;732;51.698;4.886;2023-07-13T06:41:25;30.93;;;15.33;;
1479;SDS011;732;51.698;4.886;2023-07-13T06:43:54;31.70;;;15.67;;
1479;SDS011;732;51.698;4.886;2023-07-13T06:46:23;38.83;;;15.20;;
1479;SDS011;732;51.698;4.886;2023-07-13T06:48:52;27.27;;;15.07;;
1479;SDS011;732;51.698;4.886;2023-07-13T06:51:20;25.50;;;14.10;;
1479;SDS011;732;51.698;4.886;2023-07-13T06:53:51;28.70;;;13.40;;
1479;SDS011;732;51.698;4.886;2023-07-13T06:56:22;26.03;;;13.50;;
1479;SDS011;732;51.698;4.886;2023-07-13T06:58:51;28.47;;;12.13;;
1479;SDS011;732;51.698;4.886;2023-07-13T07:01:19;26.00;;;13.50;;
1479;SDS011;732;51.698;4.886;2023-07-13T07:03:48;26.73;;;12.20;;
1479;SDS011;732;51.698;4.886;2023-07-13T07:06:18;20.60;;;9.90;;
1479;SDS011;732;51.698;4.886;2023-07-13T07:08:50;25.30;;;10.10;;
1479;SDS011;732;51.698;4.886;2023-07-13T07:11:20;22.27;;;10.00;;
1479;SDS011;732;51.698;4.886;2023-07-13T07:13:52;21.87;;;9.07;;
1479;SDS011;732;51.698;4.886;2023-07-13T07:16:21;16.43;;;8.87;;
1479;SDS011;732;51.698;4.886;2023-07-13T07:18:52;19.93;;;9.00;;
1479;SDS011;732;51.698;4.886;2023-07-13T07:21:21;18.33;;;8.97;;
1479;SDS011;732;51.698;4.886;2023-07-13T07:23:51;17.83;;;8.23;;
1479;SDS011;732;51.698;4.886;2023-07-13T07:26:20;15.37;;;7.80;;
1479;SDS011;732;51.698;4.886;2023-07-13T07:28:55;16.20;;;7.63;;
1479;SDS011;732;51.698;4.886;2023-07-13T07:31:27;18.43;;;7.40;;
1479;SDS011;732;51.698;4.886;2023-07-13T07:33:58;16.43;;;7.23;;
1479;SDS011;732;51.698;4.886;2023-07-13T07:36:29;19.60;;;7.13;;
1479;SDS011;732;51.698;4.886;2023-07-13T07:39:00;15.83;;;6.67;;
1479;SDS011;732;51.698;4.886;2023-07-13T07:41:30;15.17;;;6.73;;
1479;SDS011;732;51.698;4.886;2023-07-13T07:44:02;15.73;;;6.90;;
1479;SDS011;732;51.698;4.886;2023-07-13T07:46:33;19.70;;;6.63;;
1479;SDS011;732;51.698;4.886;2023-07-13T07:49:01;13.87;;;6.50;;
1479;SDS011;732;51.698;4.886;2023-07-13T07:51:30;14.60;;;6.70;;
1479;SDS011;732;51.698;4.886;2023-07-13T07:53:59;14.23;;;6.47;;
1479;SDS011;732;51.698;4.886;2023-07-13T07:56:27;14.00;;;6.30;;
1479;SDS011;732;51.698;4.886;2023-07-13T07:59:00;13.67;;;6.37;;
1479;SDS011;732;51.698;4.886;2023-07-13T08:01:32;12.27;;;6.33;;
1479;SDS011;732;51.698;4.886;2023-07-13T08:04:04;12.90;;;6.20;;
1479;SDS011;732;51.698;4.886;2023-07-13T08:06:35;13.50;;;5.60;;
1479;SDS011;732;51.698;4.886;2023-07-13T08:09:06;9.43;;;4.40;;
1479;SDS011;732;51.698;4.886;2023-07-13T08:11:35;11.27;;;4.60;;
1479;SDS011;732;51.698;4.886;2023-07-13T08:14:08;13.37;;;5.20;;
1479;SDS011;732;51.698;4.886;2023-07-13T08:16:37;11.77;;;4.43;;
1479;SDS011;732;51.698;4.886;2023-07-13T08:19:06;12.47;;;4.97;;
1479;SDS011;732;51.698;4.886;2023-07-13T08:21:34;10.17;;;4.43;;
1479;SDS011;732;51.698;4.886;2023-07-13T08:24:04;12.83;;;5.13;;
1479;SDS011;732;51.698;4.886;2023-07-13T08:26:34;13.00;;;5.07;;
1479;SDS011;732;51.698;4.886;2023-07-13T08:29:02;14.60;;;5.53;;
1479;SDS011;732;51.698;4.886;2023-07-13T08:31:32;13.07;;;5.00;;
1479;SDS011;732;51.698;4.886;2023-07-13T08:34:01;16.40;;;5.03;;
1479;SDS011;732;51.698;4.886;2023-07-13T08:36:29;11.43;;;5.20;;
1479;SDS011;732;51.698;4.886;2023-07-13T08:38:58;15.43;;;5.20;;
1479;SDS011;732;51.698;4.886;2023-07-13T08:41:26;11.40;;;4.23;;
1479;SDS011;732;51.698;4.886;2023-07-13T08:43:56;7.17;;;4.30;;
1479;SDS011;732;51.698;4.886;2023-07-13T08:46:28;7.03;;;3.90;;
1479;SDS011;732;51.698;4.886;2023-07-13T08:49:04;9.30;;;4.20;;
1479;SDS011;732;51.698;4.886;2023-07-13T08:51:40;10.37;;;4.93;;
1479;SDS011;732;51.698;4.886;2023-07-13T08:54:16;15.50;;;4.53;;
1479;SDS011;732;51.698;4.886;2023-07-13T08:56:50;13.00;;;5.30;;
1479;SDS011;732;51.698;4.886;2023-07-13T08:59:22;12.70;;;5.00;;
1479;SDS011;732;51.698;4.886;2023-07-13T09:02:00;10.97;;;5.03;;
1479;SDS011;732;51.698;4.886;2023-07-13T09:04:49;10.77;;;4.07;;
1479;SDS011;732;51.698;4.886;2023-07-13T09:07:26;12.77;;;4.80;;
1479;SDS011;732;51.698;4.886;2023-07-13T09:10:11;9.30;;;4.50;;
1479;SDS011;732;51.698;4.886;2023-07-13T09:12:46;16.90;;;5.20;;
1479;SDS011;732;51.698;4.886;2023-07-13T09:15:28;15.33;;;4.60;;
1479;SDS011;732;51.698;4.886;2023-07-13T09:18:02;13.90;;;3.60;;
1479;SDS011;732;51.698;4.886;2023-07-13T09:20:39;11.30;;;3.43;;
1479;SDS011;732;51.698;4.886;2023-07-13T09:23:14;11.40;;;3.40;;
1479;SDS011;732;51.698;4.886;2023-07-13T09:25:47;10.00;;;3.73;;
1479;SDS011;732;51.698;4.886;2023-07-13T09:28:22;8.30;;;3.80;;
1479;SDS011;732;51.698;4.886;2023-07-13T09:30:56;9.73;;;3.60;;
1479;SDS011;732;51.698;4.886;2023-07-13T09:33:34;8.20;;;3.83;;
1479;SDS011;732;51.698;4.886;2023-07-13T09:36:05;10.07;;;3.73;;
1479;SDS011;732;51.698;4.886;2023-07-13T09:38:47;8.87;;;3.27;;
1479;SDS011;732;51.698;4.886;2023-07-13T09:41:21;19.53;;;4.47;;
1479;SDS011;732;51.698;4.886;2023-07-13T09:44:08;12.37;;;4.00;;
1479;SDS011;732;51.698;4.886;2023-07-13T09:46:39;10.13;;;4.03;;
1479;SDS011;732;51.698;4.886;2023-07-13T09:49:14;11.10;;;4.00;;
1479;SDS011;732;51.698;4.886;2023-07-13T09:51:43;12.10;;;4.30;;
1479;SDS011;732;51.698;4.886;2023-07-13T09:54:19;7.50;;;3.80;;
1479;SDS011;732;51.698;4.886;2023-07-13T09:56:53;10.20;;;4.27;;
1479;SDS011;732;51.698;4.886;2023-07-13T09:59:31;9.37;;;3.67;;
1479;SDS011;732;51.698;4.886;2023-07-13T10:02:08;13.33;;;3.60;;
1479;SDS011;732;51.698;4.886;2023-07-13T10:04:57;8.73;;;3.90;;
1479;SDS011;732;51.698;4.886;2023-07-13T10:07:29;13.57;;;3.50;;
1479;SDS011;732;51.698;4.886;2023-07-13T10:10:00;8.73;;;3.50;;
1479;SDS011;732;51.698;4.886;2023-07-13T10:12:30;9.77;;;4.00;;
1479;SDS011;732;51.698;4.886;2023-07-13T10:15:07;7.93;;;3.33;;
1479;SDS011;732;51.698;4.886;2023-07-13T10:17:50;9.80;;;3.53;;
1479;SDS011;732;51.698;4.886;2023-07-13T10:20:23;9.67;;;4.10;;
1479;SDS011;732;51.698;4.886;2023-07-13T10:22:56;10.63;;;4.27;;
1479;SDS011;732;51.698;4.886;2023-07-13T10:25:30;10.00;;;5.67;;
1479;SDS011;732;51.698;4.886;2023-07-13T10:28:02;10.27;;;5.40;;
1479;SDS011;732;51.698;4.886;2023-07-13T10:30:40;10.37;;;4.50;;
1479;SDS011;732;51.698;4.886;2023-07-13T10:33:14;8.43;;;4.63;;
1479;SDS011;732;51.698;4.886;2023-07-13T10:35:44;10.00;;;4.40;;
1479;SDS011;732;51.698;4.886;2023-07-13T10:38:14;9.80;;;4.80;;
1479;SDS011;732;51.698;4.886;2023-07-13T10:40:50;9.97;;;4.50;;
1479;SDS011;732;51.698;4.886;2023-07-13T10:43:25;8.80;;;4.23;;
1479;SDS011;732;51.698;4.886;2023-07-13T10:45:57;11.03;;;4.93;;
1479;SDS011;732;51.698;4.886;2023-07-13T10:48:28;7.90;;;4.40;;
1479;SDS011;732;51.698;4.886;2023-07-13T10:51:00;8.77;;;4.50;;
1479;SDS011;732;51.698;4.886;2023-07-13T10:53:30;6.07;;;3.10;;
1479;SDS011;732;51.698;4.886;2023-07-13T10:56:00;6.53;;;2.87;;
1479;SDS011;732;51.698;4.886;2023-07-13T10:58:33;5.63;;;3.10;;
1479;SDS011;732;51.698;4.886;2023-07-13T11:01:04;5.60;;;3.00;;
1479;SDS011;732;51.698;4.886;2023-07-13T11:03:38;6.03;;;2.70;;
1479;SDS011;732;51.698;4.886;2023-07-13T11:06:30;8.10;;;3.23;;
1479;SDS011;732;51.698;4.886;2023-07-13T11:09:17;6.00;;;2.80;;
1479;SDS011;732;51.698;4.886;2023-07-13T11:11:59;6.13;;;2.50;;
1479;SDS011;732;51.698;4.886;2023-07-13T11:14:30;6.60;;;2.73;;
1479;SDS011;732;51.698;4.886;2023-07-13T11:17:23;5.50;;;2.50;;
1479;SDS011;732;51.698;4.886;2023-07-13T11:20:09;4.10;;;2.37;;
1479;SDS011;732;51.698;4.886;2023-07-13T11:22:52;8.20;;;2.63;;
1479;SDS011;732;51.698;4.886;2023-07-13T11:25:36;7.03;;;2.93;;
1479;SDS011;732;51.698;4.886;2023-07-13T11:28:07;5.77;;;2.53;;
1479;SDS011;732;51.698;4.886;2023-07-13T11:30:49;8.90;;;2.93;;
1479;SDS011;732;51.698;4.886;2023-07-13T11:33:48;5.67;;;2.40;;
1479;SDS011;732;51.698;4.886;2023-07-13T11:36:23;9.30;;;2.70;;
1479;SDS011;732;51.698;4.886;2023-07-13T11:39:00;6.50;;;2.33;;
1479;SDS011;732;51.698;4.886;2023-07-13T11:41:34;8.63;;;2.60;;
1479;SDS011;732;51.698;4.886;2023-07-13T11:44:07;6.90;;;2.67;;
1479;SDS011;732;51.698;4.886;2023-07-13T11:46:44;4.57;;;1.90;;
1479;SDS011;732;51.698;4.886;2023-07-13T11:49:18;7.23;;;2.17;;
1479;SDS011;732;51.698;4.886;2023-07-13T11:51:50;5.30;;;2.33;;
1479;SDS011;732;51.698;4.886;2023-07-13T11:54:26;6.70;;;2.10;;
1479;SDS011;732;51.698;4.886;2023-07-13T11:56:58;7.40;;;2.50;;
1479;SDS011;732;51.698;4.886;2023-07-13T11:59:33;6.13;;;2.47;;
1479;SDS011;732;51.698;4.886;2023-07-13T12:02:08;9.20;;;2.33;;
1479;SDS011;732;51.698;4.886;2023-07-13T12:04:47;6.03;;;2.37;;
1479;SDS011;732;51.698;4.886;2023-07-13T12:07:18;6.43;;;2.03;;
1479;SDS011;732;51.698;4.886;2023-07-13T12:09:48;7.50;;;2.63;;
1479;SDS011;732;51.698;4.886;2023-07-13T12:12:18;7.17;;;2.97;;
1479;SDS011;732;51.698;4.886;2023-07-13T12:14:57;6.70;;;2.87;;
1479;SDS011;732;51.698;4.886;2023-07-13T12:17:25;5.47;;;2.30;;
1479;SDS011;732;51.698;4.886;2023-07-13T12:19:55;5.13;;;1.97;;
1479;SDS011;732;51.698;4.886;2023-07-13T12:22:24;5.70;;;2.10;;
1479;SDS011;732;51.698;4.886;2023-07-13T12:24:55;5.50;;;2.23;;
1479;SDS011;732;51.698;4.886;2023-07-13T12:27:25;4.60;;;2.47;;
1479;SDS011;732;51.698;4.886;2023-07-13T12:29:57;5.90;;;2.10;;
1479;SDS011;732;51.698;4.886;2023-07-13T12:32:33;8.40;;;2.43;;
1479;SDS011;732;51.698;4.886;2023-07-13T12:35:12;6.30;;;2.57;;
1479;SDS011;732;51.698;4.886;2023-07-13T12:37:46;8.80;;;2.37;;
1479;SDS011;732;51.698;4.886;2023-07-13T12:40:16;4.77;;;1.90;;
1479;SDS011;732;51.698;4.886;2023-07-13T12:42:49;7.83;;;2.17;;
1479;SDS011;732;51.698;4.886;2023-07-13T12:45:20;5.87;;;2.37;;
1479;SDS011;732;51.698;4.886;2023-07-13T12:47:53;5.70;;;1.90;;
1479;SDS011;732;51.698;4.886;2023-07-13T12:50:29;6.33;;;2.07;;
1479;SDS011;732;51.698;4.886;2023-07-13T12:53:03;7.20;;;1.90;;
1479;SDS011;732;51.698;4.886;2023-07-13T12:55:41;6.47;;;1.93;;
1479;SDS011;732;51.698;4.886;2023-07-13T12:58:16;5.10;;;1.90;;
1479;SDS011;732;51.698;4.886;2023-07-13T13:00:55;5.20;;;1.97;;
1479;SDS011;732;51.698;4.886;2023-07-13T13:03:29;7.40;;;2.93;;
1479;SDS011;732;51.698;4.886;2023-07-13T13:06:01;5.90;;;2.00;;
1479;SDS011;732;51.698;4.886;2023-07-13T13:08:33;7.37;;;1.90;;
1479;SDS011;732;51.698;4.886;2023-07-13T13:11:05;5.17;;;2.37;;
1479;SDS011;732;51.698;4.886;2023-07-13T13:13:33;8.63;;;2.97;;
1479;SDS011;732;51.698;4.886;2023-07-13T13:16:02;5.53;;;2.47;;
1479;SDS011;732;51.698;4.886;2023-07-13T13:18:38;6.93;;;3.13;;
1479;SDS011;732;51.698;4.886;2023-07-13T13:21:07;7.80;;;3.20;;
1479;SDS011;732;51.698;4.886;2023-07-13T13:23:36;7.40;;;3.00;;
1479;SDS011;732;51.698;4.886;2023-07-13T13:26:09;8.10;;;2.70;;
1479;SDS011;732;51.698;4.886;2023-07-13T13:28:40;10.60;;;3.33;;
1479;SDS011;732;51.698;4.886;2023-07-13T13:31:08;6.90;;;2.83;;
1479;SDS011;732;51.698;4.886;2023-07-13T13:33:40;9.47;;;2.90;;
1479;SDS011;732;51.698;4.886;2023-07-13T13:36:15;8.30;;;2.80;;
1479;SDS011;732;51.698;4.886;2023-07-13T13:38:45;6.47;;;3.17;;
1479;SDS011;732;51.698;4.886;2023-07-13T13:41:16;9.17;;;2.60;;
1479;SDS011;732;51.698;4.886;2023-07-13T13:43:45;9.30;;;2.63;;
1479;SDS011;732;51.698;4.886;2023-07-13T13:46:15;8.27;;;3.17;;
1479;SDS011;732;51.698;4.886;2023-07-13T13:48:47;9.57;;;3.00;;
1479;SDS011;732;51.698;4.886;2023-07-13T13:51:17;9.33;;;2.93;;
1479;SDS011;732;51.698;4.886;2023-07-13T13:53:49;8.73;;;3.13;;
1479;SDS011;732;51.698;4.886;2023-07-13T13:56:19;6.67;;;2.60;;
1479;SDS011;732;51.698;4.886;2023-07-13T13:58:48;6.90;;;3.27;;
1479;SDS011;732;51.698;4.886;2023-07-13T14:01:17;12.47;;;3.47;;
1479;SDS011;732;51.698;4.886;2023-07-13T14:03:48;7.70;;;2.80;;
1479;SDS011;732;51.698;4.886;2023-07-13T14:06:18;5.60;;;2.57;;
1479;SDS011;732;51.698;4.886;2023-07-13T14:08:46;4.20;;;2.10;;
1479;SDS011;732;51.698;4.886;2023-07-13T14:11:16;6.03;;;2.63;;
1479;SDS011;732;51.698;4.886;2023-07-13T14:13:48;7.10;;;2.53;;
1479;SDS011;732;51.698;4.886;2023-07-13T14:16:20;6.73;;;2.60;;
1479;SDS011;732;51.698;4.886;2023-07-13T14:18:51;7.70;;;2.57;;
1479;SDS011;732;51.698;4.886;2023-07-13T14:21:20;11.20;;;3.20;;
1479;SDS011;732;51.698;4.886;2023-07-13T14:23:49;7.30;;;2.63;;
1479;SDS011;732;51.698;4.886;2023-07-13T14:26:20;7.33;;;2.47;;
1479;SDS011;732;51.698;4.886;2023-07-13T14:28:52;5.97;;;2.50;;
1479;SDS011;732;51.698;4.886;2023-07-13T14:31:25;6.23;;;2.77;;
1479;SDS011;732;51.698;4.886;2023-07-13T14:33:56;8.20;;;2.80;;
1479;SDS011;732;51.698;4.886;2023-07-13T14:36:28;4.90;;;2.20;;
1479;SDS011;732;51.698;4.886;2023-07-13T14:38:59;5.63;;;2.20;;
1479;SDS011;732;51.698;4.886;2023-07-13T14:41:51;9.70;;;2.37;;
1479;SDS011;732;51.698;4.886;2023-07-13T14:44:23;6.90;;;2.43;;
1479;SDS011;732;51.698;4.886;2023-07-13T14:46:55;7.80;;;2.30;;
1479;SDS011;732;51.698;4.886;2023-07-13T14:49:28;7.80;;;2.60;;
1479;SDS011;732;51.698;4.886;2023-07-13T14:51:59;5.53;;;2.33;;
1479;SDS011;732;51.698;4.886;2023-07-13T14:54:33;5.03;;;2.37;;
1479;SDS011;732;51.698;4.886;2023-07-13T14:57:03;5.80;;;2.10;;
1479;SDS011;732;51.698;4.886;2023-07-13T14:59:33;5.90;;;2.20;;
1479;SDS011;732;51.698;4.886;2023-07-13T15:02:01;6.90;;;2.13;;
1479;SDS011;732;51.698;4.886;2023-07-13T15:04:40;7.60;;;2.27;;
1479;SDS011;732;51.698;4.886;2023-07-13T15:07:09;10.27;;;2.50;;
1479;SDS011;732;51.698;4.886;2023-07-13T15:09:39;5.17;;;2.23;;
1479;SDS011;732;51.698;4.886;2023-07-13T15:12:09;6.53;;;2.23;;
1479;SDS011;732;51.698;4.886;2023-07-13T15:14:38;4.40;;;1.93;;
1479;SDS011;732;51.698;4.886;2023-07-13T15:17:10;5.60;;;2.23;;
1479;SDS011;732;51.698;4.886;2023-07-13T15:19:53;9.83;;;2.47;;
1479;SDS011;732;51.698;4.886;2023-07-13T15:22:24;14.83;;;2.40;;
1479;SDS011;732;51.698;4.886;2023-07-13T15:24:53;8.77;;;2.60;;
1479;SDS011;732;51.698;4.886;2023-07-13T15:27:28;8.60;;;2.60;;
1479;SDS011;732;51.698;4.886;2023-07-13T15:29:57;7.30;;;3.17;;
1479;SDS011;732;51.698;4.886;2023-07-13T15:32:26;5.90;;;2.50;;
1479;SDS011;732;51.698;4.886;2023-07-13T15:34:54;14.47;;;2.50;;
1479;SDS011;732;51.698;4.886;2023-07-13T15:37:23;5.60;;;1.83;;
1479;SDS011;732;51.698;4.886;2023-07-13T15:39:51;5.37;;;2.50;;
1479;SDS011;732;51.698;4.886;2023-07-13T15:42:20;5.97;;;2.10;;
1479;SDS011;732;51.698;4.886;2023-07-13T15:44:52;7.53;;;2.67;;
1479;SDS011;732;51.698;4.886;2023-07-13T15:47:21;6.13;;;2.10;;
1479;SDS011;732;51.698;4.886;2023-07-13T15:49:49;7.67;;;2.27;;